createdAt,value
2022-12-11T00:00:15.869Z,2.94
2022-12-11T00:03:19.245Z,2.86
2022-12-11T00:06:23.435Z,2.85
2022-12-11T00:09:26.725Z,2.83
2022-12-11T00:12:30.674Z,2.79
2022-12-11T00:15:33.428Z,2.72
2022-12-11T00:18:36.442Z,2.75
2022-12-11T00:21:39.253Z,2.71
2022-12-11T00:24:41.756Z,2.66
2022-12-11T00:27:46.126Z,2.64
2022-12-11T00:30:48.676Z,2.62
2022-12-11T00:33:51.917Z,2.61
2022-12-11T00:36:54.423Z,2.57
2022-12-11T00:39:57.311Z,2.54
2022-12-11T00:42:59.820Z,2.51
2022-12-11T00:46:02.790Z,2.54
2022-12-11T00:49:05.450Z,2.48
2022-12-11T00:52:08.462Z,2.47
2022-12-11T00:55:11.586Z,2.44
2022-12-11T00:58:14.668Z,2.41
2022-12-11T01:01:20.933Z,2.37
2022-12-11T01:04:23.906Z,2.37
2022-12-11T01:07:26.783Z,2.34
2022-12-11T01:10:31.554Z,2.33
2022-12-11T01:13:34.303Z,2.28
2022-12-11T01:16:37.274Z,2.22
2022-12-11T01:19:39.860Z,2.14
2022-12-11T01:22:42.608Z,2.16
2022-12-11T01:25:45.202Z,2.19
2022-12-11T01:28:52.135Z,2.17
2022-12-11T01:31:54.722Z,2.13
2022-12-11T01:34:57.544Z,2.07
2022-12-11T01:37:59.995Z,2.03
2022-12-11T01:41:03.419Z,2.01
2022-12-11T01:44:29.015Z,2.06
2022-12-11T01:47:31.798Z,2.03
2022-12-11T01:50:39.059Z,1.97
2022-12-11T01:53:48.711Z,2.00
2022-12-11T01:56:53.319Z,1.93
2022-12-11T01:59:56.318Z,1.93
2022-12-11T02:02:58.751Z,1.89
2022-12-11T02:06:02.660Z,1.81
2022-12-11T02:09:09.268Z,1.81
2022-12-11T02:12:36.788Z,1.81
2022-12-11T02:15:57.633Z,1.70
2022-12-11T02:19:30.658Z,1.60
2022-12-11T02:22:58.772Z,1.54
2022-12-11T02:26:01.441Z,1.52
2022-12-11T02:29:12.720Z,1.53
2022-12-11T02:32:22.484Z,1.41
2022-12-11T02:35:35.905Z,1.35
2022-12-11T02:38:41.797Z,1.30
2022-12-11T02:41:49.249Z,1.20
2022-12-11T02:44:53.853Z,1.26
2022-12-11T02:48:01.021Z,1.16
2022-12-11T02:51:06.326Z,1.19
2022-12-11T02:54:26.952Z,1.11
2022-12-11T02:57:43.401Z,1.12
2022-12-11T03:00:46.680Z,1.08
2022-12-11T03:03:49.494Z,1.13
2022-12-11T03:06:56.480Z,1.00
2022-12-11T03:09:59.663Z,1.05
2022-12-11T03:13:03.102Z,0.98
2022-12-11T03:16:31.037Z,1.02
2022-12-11T03:19:39.894Z,0.96
2022-12-11T03:23:08.875Z,0.93
2022-12-11T03:26:14.543Z,0.90
2022-12-11T03:29:24.719Z,0.92
2022-12-11T03:32:31.407Z,0.95
2022-12-11T03:35:37.133Z,0.90
2022-12-11T03:39:07.286Z,0.87
2022-12-11T03:42:13.901Z,0.81
2022-12-11T03:45:19.178Z,0.81
2022-12-11T03:48:25.985Z,0.87
2022-12-11T03:51:31.683Z,0.78
2022-12-11T03:54:35.239Z,0.77
2022-12-11T03:57:38.527Z,0.80
2022-12-11T04:00:43.758Z,0.82
2022-12-11T04:03:46.540Z,0.81
2022-12-11T04:06:49.103Z,0.82
2022-12-11T04:09:51.915Z,0.79
2022-12-11T04:12:54.435Z,0.71
2022-12-11T04:15:57.120Z,0.74
2022-12-11T04:19:17.998Z,0.71
2022-12-11T04:22:39.647Z,0.74
2022-12-11T04:25:42.196Z,0.73
2022-12-11T04:28:47.019Z,0.66
2022-12-11T04:31:50.775Z,0.69
2022-12-11T04:34:53.458Z,0.70
2022-12-11T04:37:56.143Z,0.71
2022-12-11T04:41:11.494Z,0.70
2022-12-11T04:44:14.074Z,0.69
2022-12-11T04:47:17.041Z,0.73
2022-12-11T04:50:19.575Z,0.74
2022-12-11T04:53:22.534Z,0.72
2022-12-11T04:56:24.929Z,0.71
2022-12-11T04:59:27.772Z,0.71
2022-12-11T05:02:30.427Z,0.74
2022-12-11T05:05:33.162Z,0.77
2022-12-11T05:08:37.772Z,0.80
2022-12-11T05:11:40.518Z,0.79
2022-12-11T05:14:42.947Z,0.81
2022-12-11T05:17:45.678Z,0.82
2022-12-11T05:21:03.157Z,0.78
2022-12-11T05:24:06.261Z,0.79
2022-12-11T05:27:08.808Z,0.81
2022-12-11T05:30:11.721Z,0.79
2022-12-11T05:33:14.475Z,0.78
2022-12-11T05:36:20.842Z,0.80
2022-12-11T05:39:23.345Z,0.80
2022-12-11T05:42:28.960Z,0.76
2022-12-11T05:45:31.714Z,0.77
2022-12-11T05:48:35.108Z,0.80
2022-12-11T05:51:39.766Z,0.77
2022-12-11T05:54:42.555Z,0.73
2022-12-11T05:57:45.066Z,0.75
2022-12-11T06:00:48.531Z,0.77
2022-12-11T06:03:51.768Z,0.78
2022-12-11T06:06:55.131Z,0.82
2022-12-11T06:09:57.802Z,0.81
2022-12-11T06:13:00.293Z,0.77
2022-12-11T06:16:06.027Z,0.79
2022-12-11T06:19:14.039Z,0.76
2022-12-11T06:22:17.067Z,0.80
2022-12-11T06:25:19.615Z,0.76
2022-12-11T06:28:22.443Z,0.77
2022-12-11T06:31:24.884Z,0.83
2022-12-11T06:34:27.767Z,0.81
2022-12-11T06:37:30.276Z,0.81
2022-12-11T06:40:33.021Z,0.91
2022-12-11T06:43:37.049Z,0.86
2022-12-11T06:46:39.823Z,0.89
2022-12-11T06:49:43.108Z,0.84
2022-12-11T06:52:45.787Z,0.79
2022-12-11T06:55:48.213Z,0.79
2022-12-11T06:58:52.042Z,0.77
2022-12-11T07:01:54.650Z,0.82
2022-12-11T07:04:57.949Z,0.82
2022-12-11T07:08:00.412Z,0.81
2022-12-11T07:11:08.947Z,0.86
2022-12-11T07:14:11.537Z,0.89
2022-12-11T07:17:14.405Z,0.89
2022-12-11T07:20:17.397Z,0.99
2022-12-11T07:23:20.465Z,0.99
2022-12-11T07:26:22.941Z,1.04
2022-12-11T07:29:25.606Z,1.10
2022-12-11T07:32:29.023Z,1.20
2022-12-11T07:35:34.740Z,1.18
2022-12-11T07:38:37.383Z,1.34
2022-12-11T07:41:40.239Z,1.34
2022-12-11T07:44:45.527Z,1.47
2022-12-11T07:47:48.229Z,1.55
2022-12-11T07:50:50.800Z,1.63
2022-12-11T07:53:57.096Z,1.72
2022-12-11T07:56:59.478Z,1.80
2022-12-11T08:00:02.640Z,1.83
2022-12-11T08:03:14.781Z,1.89
2022-12-11T08:06:17.949Z,1.90
2022-12-11T08:09:22.715Z,1.66
2022-12-11T08:12:25.518Z,1.67
2022-12-11T08:15:27.958Z,1.77
2022-12-11T08:18:30.778Z,1.72
2022-12-11T08:21:33.222Z,1.75
2022-12-11T08:24:35.934Z,1.82
2022-12-11T08:27:38.343Z,1.88
2022-12-11T08:30:41.421Z,1.83
2022-12-11T08:33:44.505Z,1.95
2022-12-11T08:36:47.179Z,1.88
2022-12-11T08:39:49.676Z,1.87
2022-12-11T08:42:52.415Z,1.91
2022-12-11T08:45:54.910Z,1.80
2022-12-11T08:48:58.281Z,1.76
2022-12-11T08:52:00.818Z,1.80
2022-12-11T08:55:03.751Z,1.78
2022-12-11T08:58:06.360Z,1.73
2022-12-11T09:01:18.039Z,1.80
2022-12-11T09:04:20.538Z,1.81
2022-12-11T09:07:23.341Z,1.80
2022-12-11T09:10:25.896Z,1.84
2022-12-11T09:13:28.599Z,1.88
2022-12-11T09:16:31.863Z,1.88
2022-12-11T09:19:35.164Z,1.93
2022-12-11T09:22:37.851Z,1.89
2022-12-11T09:25:40.851Z,1.85
2022-12-11T09:28:46.676Z,1.92
2022-12-11T09:31:49.991Z,1.99
2022-12-11T09:34:52.474Z,1.98
2022-12-11T09:37:55.164Z,1.98
2022-12-11T09:40:58.125Z,1.91
2022-12-11T09:44:12.953Z,2.03
2022-12-11T09:47:34.195Z,1.95
2022-12-11T09:50:39.662Z,1.96
2022-12-11T09:53:42.563Z,2.14
2022-12-11T09:56:55.222Z,2.04
2022-12-11T10:00:24.723Z,2.03
2022-12-11T10:03:50.309Z,2.12
2022-12-11T10:07:03.370Z,2.05
2022-12-11T10:10:19.013Z,2.13
2022-12-11T10:13:21.404Z,2.12
2022-12-11T10:16:40.718Z,2.10
2022-12-11T10:19:43.169Z,2.15
2022-12-11T10:22:46.977Z,2.17
2022-12-11T10:26:05.747Z,2.29
2022-12-11T10:29:14.935Z,2.18
2022-12-11T10:32:29.995Z,2.02
2022-12-11T10:35:54.765Z,2.10
2022-12-11T10:38:57.922Z,2.08
2022-12-11T10:42:13.427Z,2.06
2022-12-11T10:45:16.212Z,2.08
2022-12-11T10:48:19.038Z,2.02
2022-12-11T10:51:24.868Z,2.02
2022-12-11T10:54:40.783Z,1.99
2022-12-11T10:57:43.618Z,1.82
2022-12-11T11:01:08.799Z,1.80
2022-12-11T11:04:19.042Z,1.82
2022-12-11T11:07:24.374Z,1.89
2022-12-11T11:10:27.298Z,1.91
2022-12-11T11:13:32.708Z,1.95
2022-12-11T11:16:37.481Z,1.97
2022-12-11T11:19:40.535Z,2.04
2022-12-11T11:22:47.580Z,2.00
2022-12-11T11:26:11.628Z,2.10
2022-12-11T11:29:27.570Z,2.10
2022-12-11T11:32:38.743Z,2.18
2022-12-11T11:35:58.347Z,2.21
2022-12-11T11:39:25.745Z,2.19
2022-12-11T11:42:45.366Z,2.35
2022-12-11T11:46:03.254Z,2.26
2022-12-11T11:49:23.692Z,2.26
2022-12-11T11:52:30.764Z,2.20
2022-12-11T11:55:58.795Z,2.27
2022-12-11T11:59:23.482Z,2.28
2022-12-11T12:02:25.970Z,2.17
2022-12-11T12:05:57.713Z,2.17
2022-12-11T12:09:23.030Z,2.22
2022-12-11T12:12:38.261Z,2.28
2022-12-11T12:16:01.823Z,2.39
2022-12-11T12:19:13.683Z,2.36
2022-12-11T12:22:28.303Z,2.28
2022-12-11T12:25:37.274Z,2.38
2022-12-11T12:28:45.739Z,2.32
2022-12-11T12:31:55.817Z,2.35
2022-12-11T12:35:32.042Z,2.34
2022-12-11T12:38:55.791Z,2.37
2022-12-11T12:42:09.998Z,2.25
2022-12-11T12:45:12.933Z,2.28
2022-12-11T12:48:16.211Z,2.27
2022-12-11T12:51:19.535Z,2.22
2022-12-11T12:54:22.571Z,2.21
2022-12-11T12:57:25.320Z,2.28
2022-12-11T13:00:31.370Z,2.29
2022-12-11T13:03:38.248Z,2.27
2022-12-11T13:06:42.906Z,2.19
2022-12-11T13:09:58.291Z,2.24
2022-12-11T13:13:02.524Z,2.20
2022-12-11T13:16:17.348Z,2.18
2022-12-11T13:19:25.733Z,2.28
2022-12-11T13:22:28.574Z,2.28
2022-12-11T13:25:36.257Z,2.22
2022-12-11T13:28:42.876Z,2.30
2022-12-11T13:31:45.761Z,2.17
2022-12-11T13:34:56.258Z,2.27
2022-12-11T13:38:06.926Z,2.26
2022-12-11T13:41:13.453Z,2.17
2022-12-11T13:44:23.618Z,2.17
2022-12-11T13:47:27.247Z,2.18
2022-12-11T13:50:34.603Z,2.05
2022-12-11T13:53:37.655Z,1.89
2022-12-11T13:56:40.342Z,1.90
2022-12-11T13:59:48.402Z,1.81
2022-12-11T14:02:53.659Z,1.84
2022-12-11T14:05:56.481Z,1.81
2022-12-11T14:09:01.925Z,1.94
2022-12-11T14:12:04.997Z,1.85
2022-12-11T14:15:14.756Z,1.84
2022-12-11T14:18:28.717Z,1.79
2022-12-11T14:21:32.089Z,1.75
2022-12-11T14:24:34.914Z,1.68
2022-12-11T14:27:37.314Z,1.62
2022-12-11T14:30:47.374Z,1.73
2022-12-11T14:33:58.123Z,1.74
2022-12-11T14:37:05.355Z,1.67
2022-12-11T14:40:18.783Z,1.72
2022-12-11T14:43:30.665Z,1.64
2022-12-11T14:46:46.260Z,1.53
2022-12-11T14:49:55.437Z,1.61
2022-12-11T14:53:07.975Z,1.54
2022-12-11T14:56:19.334Z,1.46
2022-12-11T14:59:30.164Z,1.34
2022-12-11T15:02:36.730Z,1.34
2022-12-11T15:05:51.260Z,1.38
2022-12-11T15:08:54.513Z,1.37
2022-12-11T15:12:07.094Z,1.30
2022-12-11T15:15:15.830Z,1.31
2022-12-11T15:18:24.574Z,1.40
2022-12-11T15:21:33.903Z,1.38
2022-12-11T15:24:44.090Z,1.37
2022-12-11T15:27:51.434Z,1.25
2022-12-11T15:31:00.966Z,1.34
2022-12-11T15:34:03.957Z,1.29
2022-12-11T15:37:38.485Z,1.17
2022-12-11T15:40:43.443Z,1.19
2022-12-11T15:43:45.948Z,1.20
2022-12-11T15:46:48.696Z,1.14
2022-12-11T15:49:57.115Z,1.11
2022-12-11T15:53:00.036Z,1.19
2022-12-11T15:56:02.661Z,1.16
2022-12-11T15:59:07.043Z,1.13
2022-12-11T16:02:12.817Z,1.11
2022-12-11T16:05:16.279Z,1.09
2022-12-11T16:08:22.579Z,1.09
2022-12-11T16:11:25.447Z,1.07
2022-12-11T16:14:28.054Z,1.04
2022-12-11T16:17:31.443Z,1.01
2022-12-11T16:20:36.210Z,1.01
2022-12-11T16:23:39.045Z,0.99
2022-12-11T16:26:41.555Z,1.00
2022-12-11T16:29:44.717Z,1.05
2022-12-11T16:32:47.320Z,0.95
2022-12-11T16:35:50.192Z,1.00
2022-12-11T16:38:54.203Z,0.90
2022-12-11T16:41:57.311Z,0.92
2022-12-11T16:45:10.662Z,0.87
2022-12-11T16:48:13.683Z,0.88
2022-12-11T16:51:16.924Z,0.93
2022-12-11T16:54:19.714Z,0.98
2022-12-11T16:57:22.306Z,0.81
2022-12-11T17:00:26.803Z,0.81
2022-12-11T17:03:30.649Z,0.83
2022-12-11T17:06:33.969Z,0.83
2022-12-11T17:09:36.596Z,0.76
2022-12-11T17:12:39.368Z,0.77
2022-12-11T17:15:43.218Z,0.81
2022-12-11T17:18:48.308Z,0.76
2022-12-11T17:21:51.764Z,0.81
2022-12-11T17:24:54.954Z,0.75
2022-12-11T17:27:57.442Z,0.81
2022-12-11T17:31:13.981Z,0.78
2022-12-11T17:34:16.562Z,0.69
2022-12-11T17:37:19.295Z,0.73
2022-12-11T17:40:26.435Z,0.78
2022-12-11T17:43:29.227Z,0.70
2022-12-11T17:46:31.885Z,0.75
2022-12-11T17:49:34.635Z,0.78
2022-12-11T17:52:43.825Z,0.68
2022-12-11T17:55:48.266Z,0.66
2022-12-11T17:58:50.956Z,0.65
2022-12-11T18:01:53.801Z,0.63
2022-12-11T18:04:56.578Z,0.66
2022-12-11T18:07:59.073Z,0.54
2022-12-11T18:11:16.601Z,0.57
2022-12-11T18:14:19.194Z,0.55
2022-12-11T18:17:21.940Z,0.62
2022-12-11T18:20:25.263Z,0.55
2022-12-11T18:23:28.428Z,0.61
2022-12-11T18:26:31.309Z,0.59
2022-12-11T18:29:34.088Z,0.57
2022-12-11T18:32:36.626Z,0.58
2022-12-11T18:35:40.821Z,0.51
2022-12-11T18:38:43.851Z,0.55
2022-12-11T18:41:58.294Z,0.61
2022-12-11T18:45:10.216Z,0.54
2022-12-11T18:48:14.637Z,0.48
2022-12-11T18:51:23.707Z,0.53
2022-12-11T18:54:26.543Z,0.55
2022-12-11T18:57:29.143Z,0.50
2022-12-11T19:00:32.276Z,0.46
2022-12-11T19:03:35.627Z,0.44
2022-12-11T19:06:38.639Z,0.40
2022-12-11T19:09:46.182Z,0.42
2022-12-11T19:12:50.819Z,0.46
2022-12-11T19:15:53.492Z,0.36
2022-12-11T19:18:58.868Z,0.36
2022-12-11T19:22:01.783Z,0.36
2022-12-11T19:25:06.629Z,0.38
2022-12-11T19:28:10.007Z,0.37
2022-12-11T19:31:16.930Z,0.37
2022-12-11T19:34:19.744Z,0.35
2022-12-11T19:37:22.499Z,0.33
2022-12-11T19:40:26.245Z,0.35
2022-12-11T19:43:28.999Z,0.34
2022-12-11T19:46:31.592Z,0.27
2022-12-11T19:49:34.411Z,0.23
2022-12-11T19:52:41.495Z,0.35
2022-12-11T19:55:51.808Z,0.40
2022-12-11T19:58:54.607Z,0.34
2022-12-11T20:01:57.444Z,0.31
2022-12-11T20:05:00.181Z,0.22
2022-12-11T20:08:35.344Z,0.32
2022-12-11T20:11:25.875Z,0.22
2022-12-11T20:14:29.482Z,0.27
2022-12-11T20:17:33.457Z,0.19
2022-12-11T20:20:37.071Z,0.22
2022-12-11T20:23:41.377Z,0.18
2022-12-11T20:26:44.131Z,0.15
2022-12-11T20:29:47.041Z,0.09
2022-12-11T20:32:51.014Z,0.05
2022-12-11T20:35:53.753Z,-0.05
2022-12-11T20:38:56.417Z,-0.05
2022-12-11T20:42:01.090Z,-0.09
2022-12-11T20:45:04.077Z,-0.10
2022-12-11T20:48:06.906Z,-0.17
2022-12-11T20:51:11.998Z,-0.16
2022-12-11T20:54:14.770Z,-0.07
2022-12-11T20:57:17.383Z,-0.14
2022-12-11T21:00:20.224Z,-0.21
2022-12-11T21:03:22.766Z,-0.28
2022-12-11T21:06:31.173Z,-0.14
2022-12-11T21:09:34.421Z,-0.25
2022-12-11T21:12:40.289Z,-0.29
2022-12-11T21:15:43.502Z,-0.30
2022-12-11T21:18:47.000Z,-0.31
2022-12-11T21:21:49.944Z,-0.32
2022-12-11T21:24:52.735Z,-0.32
2022-12-11T21:27:55.518Z,-0.43
2022-12-11T21:31:04.917Z,-0.43
2022-12-11T21:34:07.802Z,-0.39
2022-12-11T21:37:10.555Z,-0.51
2022-12-11T21:40:13.666Z,-0.52
2022-12-11T21:43:16.607Z,-0.49
2022-12-11T21:46:22.258Z,-0.59
2022-12-11T21:49:25.094Z,-0.61
2022-12-11T21:52:27.570Z,-0.57
2022-12-11T21:55:30.344Z,-0.64
2022-12-11T21:58:33.081Z,-0.69
2022-12-11T22:01:42.124Z,-0.70
2022-12-11T22:04:47.455Z,-0.64
2022-12-11T22:07:50.103Z,-0.65
2022-12-11T22:10:53.485Z,-0.70
2022-12-11T22:13:56.523Z,-0.70
2022-12-11T22:16:59.366Z,-0.71
2022-12-11T22:20:02.201Z,-0.67
2022-12-11T22:23:05.070Z,-0.71
2022-12-11T22:26:09.257Z,-0.72
2022-12-11T22:29:11.982Z,-0.78
2022-12-11T22:32:14.474Z,-0.80
2022-12-11T22:35:17.261Z,-0.84
2022-12-11T22:38:19.908Z,-0.87
2022-12-11T22:41:26.513Z,-0.80
2022-12-11T22:44:29.001Z,-0.91
2022-12-11T22:47:31.736Z,-0.88
2022-12-11T22:50:36.673Z,-0.97
2022-12-11T22:53:39.923Z,-1.07
2022-12-11T22:56:42.599Z,-1.06
2022-12-11T22:59:45.503Z,-1.10
2022-12-11T23:02:48.522Z,-1.04
2022-12-11T23:05:51.333Z,-1.13
2022-12-11T23:08:58.188Z,-1.20
2022-12-11T23:12:01.677Z,-1.21
2022-12-11T23:15:04.660Z,-1.26
2022-12-11T23:18:07.488Z,-1.23
2022-12-11T23:21:10.539Z,-1.32
2022-12-11T23:24:13.395Z,-1.34
2022-12-11T23:27:15.915Z,-1.23
2022-12-11T23:30:20.151Z,-1.26
2022-12-11T23:33:22.559Z,-1.32
2022-12-11T23:36:26.478Z,-1.30
2022-12-11T23:39:29.420Z,-1.35
2022-12-11T23:42:33.776Z,-1.40
2022-12-11T23:45:36.380Z,-1.39
2022-12-11T23:48:39.368Z,-1.38
2022-12-11T23:51:41.919Z,-1.46
2022-12-11T23:54:44.588Z,-1.53
2022-12-11T23:57:47.028Z,-1.51
